Time;durP1;ratioP1;P1;durP2;ratioP2;P2;SDS_P1;SDS_P2;PMS_P1;PMS_P2;Temp;Humidity;BMP_temperature;BMP_pressure;BME280_temperature;BME280_humidity;BME280_pressure;Samples;Min_cycle;Max_cycle;Signal;HPM_P1;HPM_P2
2022/11/01 00:01:58;;;;;;;8.95;4.35;;;17.60;99.90;;;;;;5075534;28;20253;-66
2022/11/01 00:04:24;;;;;;;12.63;4.43;;;17.60;99.90;;;;;;5075779;28;20224;-66
2022/11/01 00:06:50;;;;;;;9.43;4.50;;;17.70;99.90;;;;;;5074874;28;20685;-66
2022/11/01 00:09:15;;;;;;;13.98;5.15;;;17.60;99.90;;;;;;5075891;28;20528;-66
2022/11/01 00:11:41;;;;;;;7.57;4.63;;;17.70;99.90;;;;;;5073877;28;20187;-66
2022/11/01 00:14:10;;;;;;;7.90;4.45;;;17.70;99.90;;;;;;5075157;28;20178;-65
2022/11/01 00:16:36;;;;;;;11.32;4.53;;;17.70;99.90;;;;;;5073830;28;20569;-65
2022/11/01 00:19:01;;;;;;;9.68;4.50;;;17.70;99.90;;;;;;5074986;28;20170;-65
2022/11/01 00:21:27;;;;;;;8.30;4.10;;;17.80;99.90;;;;;;5075227;28;20185;-65
2022/11/01 00:23:53;;;;;;;8.50;4.20;;;17.80;99.90;;;;;;5074809;28;20248;-66
2022/11/01 00:26:22;;;;;;;8.38;4.85;;;17.70;99.90;;;;;;5074635;28;20233;-65
2022/11/01 00:28:48;;;;;;;9.48;5.05;;;17.80;99.90;;;;;;5074836;28;20634;-65
2022/11/01 00:31:15;;;;;;;10.23;4.50;;;17.70;99.90;;;;;;5073769;28;20588;-66
2022/11/01 00:33:41;;;;;;;9.23;4.45;;;17.70;99.90;;;;;;5074834;28;20174;-65
2022/11/01 00:36:07;;;;;;;8.18;4.40;;;17.60;99.90;;;;;;5074398;28;20208;-65
2022/11/01 00:38:34;;;;;;;12.40;4.63;;;17.70;99.90;;;;;;5074242;28;20170;-65
2022/11/01 00:41:01;;;;;;;11.65;4.75;;;17.60;99.90;;;;;;5073202;28;20185;-66
2022/11/01 00:43:32;;;;;;;10.48;5.28;;;17.50;99.90;;;;;;5074315;28;20190;-65
2022/11/01 00:45:58;;;;;;;12.73;4.75;;;17.60;99.90;;;;;;5074123;28;20271;-65
2022/11/01 00:48:24;;;;;;;12.00;5.03;;;17.50;99.90;;;;;;5074608;28;20177;-66
2022/11/01 00:50:50;;;;;;;8.63;5.00;;;17.40;99.90;;;;;;5073085;28;20174;-66
2022/11/01 00:53:16;;;;;;;12.25;5.03;;;17.40;99.90;;;;;;5074167;28;20174;-65
2022/11/01 00:55:42;;;;;;;6.82;4.15;;;17.40;99.90;;;;;;5074390;28;20193;-65
2022/11/01 00:58:08;;;;;;;9.52;4.72;;;17.40;99.90;;;;;;5074261;28;20182;-65
2022/11/01 01:00:34;;;;;;;9.98;4.95;;;17.40;99.90;;;;;;5074061;28;20170;-65
2022/11/01 01:03:01;;;;;;;9.30;4.47;;;17.40;99.90;;;;;;5074696;28;20177;-66
2022/11/01 01:05:27;;;;;;;10.30;5.00;;;17.40;99.90;;;;;;5072716;28;20277;-66
2022/11/01 01:07:52;;;;;;;11.23;4.90;;;17.40;99.90;;;;;;5073836;28;20610;-65
2022/11/01 01:10:18;;;;;;;15.27;5.00;;;17.30;99.90;;;;;;5074507;28;20201;-65
2022/11/01 01:12:44;;;;;;;9.13;4.50;;;17.20;99.90;;;;;;5073775;28;20523;-65
2022/11/01 01:15:10;;;;;;;8.15;4.90;;;17.10;99.90;;;;;;5073707;28;20236;-65
2022/11/01 01:17:36;;;;;;;11.93;5.43;;;17.00;99.90;;;;;;5074090;28;20277;-65
2022/11/01 01:20:03;;;;;;;10.35;4.80;;;17.00;99.90;;;;;;5073548;28;20658;-66
2022/11/01 01:22:29;;;;;;;11.38;4.88;;;16.80;99.90;;;;;;5073655;28;20185;-65
2022/11/01 01:24:55;;;;;;;10.32;5.28;;;16.80;99.90;;;;;;5073781;28;20193;-66
2022/11/01 01:27:20;;;;;;;11.90;5.13;;;16.60;99.90;;;;;;5073336;28;20198;-65
2022/11/01 01:29:46;;;;;;;9.93;5.30;;;16.60;99.90;;;;;;5072112;28;20169;-65
2022/11/01 01:32:13;;;;;;;10.57;4.95;;;16.50;99.90;;;;;;5072176;28;20170;-65
2022/11/01 01:34:39;;;;;;;10.32;5.00;;;16.50;99.90;;;;;;5073184;28;20165;-66
2022/11/01 01:37:06;;;;;;;12.57;5.00;;;16.50;99.90;;;;;;5072073;28;20184;-65
2022/11/01 01:39:32;;;;;;;12.25;4.88;;;16.40;99.90;;;;;;5073320;28;20216;-65
2022/11/01 01:41:57;;;;;;;12.13;5.28;;;16.30;99.90;;;;;;5073660;28;20181;-65
2022/11/01 01:44:45;;;;;;;10.07;5.45;;;16.40;99.90;;;;;;5073223;28;20217;-65
2022/11/01 01:47:15;;;;;;;8.10;5.03;;;16.40;99.90;;;;;;5073157;28;20190;-65
2022/11/01 01:49:42;;;;;;;8.05;5.07;;;16.30;99.90;;;;;;5071243;28;20181;-66
2022/11/01 01:52:09;;;;;;;10.15;5.50;;;16.30;99.90;;;;;;5073376;28;20170;-65
2022/11/01 01:54:35;;;;;;;12.15;5.45;;;16.20;99.90;;;;;;5073348;28;20169;-65
2022/11/01 01:57:01;;;;;;;10.10;4.95;;;16.10;99.90;;;;;;5072012;28;20613;-65
2022/11/01 01:59:27;;;;;;;7.25;5.15;;;16.10;99.90;;;;;;5073669;28;20487;-65
2022/11/01 02:01:53;;;;;;;7.78;4.55;;;16.00;99.90;;;;;;5073218;28;20626;-65
2022/11/01 02:04:31;;;;;;;10.90;5.72;;;16.00;99.90;;;;;;5073344;28;20182;-66
2022/11/01 02:06:58;;;;;;;12.48;4.88;;;16.00;99.90;;;;;;5073100;28;20193;-65
2022/11/01 02:09:24;;;;;;;8.18;4.80;;;16.10;99.90;;;;;;5073201;28;20253;-65
2022/11/01 02:11:50;;;;;;;12.25;5.15;;;16.10;99.90;;;;;;5073165;28;20216;-65
2022/11/01 02:14:16;;;;;;;11.73;4.88;;;16.10;99.90;;;;;;5073233;28;20162;-65
2022/11/01 02:16:45;;;;;;;13.45;5.50;;;16.20;99.90;;;;;;5073082;28;20674;-65
2022/11/01 02:19:45;;;;;;;15.52;5.25;;;16.20;99.90;;;;;;5072818;28;20177;-66
2022/11/01 02:22:49;;;;;;;11.75;5.60;;;16.20;99.90;;;;;;5073707;28;20284;-65
2022/11/01 02:25:43;;;;;;;10.38;5.45;;;16.20;99.90;;;;;;5071676;28;20247;-65
2022/11/01 02:28:53;;;;;;;9.15;5.22;;;16.10;99.90;;;;;;5072958;28;20293;-65
2022/11/01 02:32:03;;;;;;;12.23;5.00;;;16.10;99.90;;;;;;5071726;28;20587;-65
2022/11/01 02:34:44;;;;;;;10.30;5.38;;;16.10;99.90;;;;;;5072968;28;20223;-65
2022/11/01 02:37:27;;;;;;;12.27;5.05;;;16.10;99.90;;;;;;5073346;28;20158;-65
2022/11/01 02:39:58;;;;;;;9.75;5.30;;;16.20;99.90;;;;;;5072942;28;20162;-65
2022/11/01 02:42:41;;;;;;;14.52;5.50;;;16.30;99.90;;;;;;5072846;28;20268;-66
2022/11/01 02:45:36;;;;;;;13.30;5.43;;;16.30;99.90;;;;;;5071489;28;20308;-65
2022/11/01 02:48:03;;;;;;;11.35;4.82;;;16.40;99.90;;;;;;5073044;28;20646;-65
2022/11/01 02:50:46;;;;;;;10.23;4.78;;;16.40;99.90;;;;;;5072700;28;20181;-65
2022/11/01 02:53:12;;;;;;;11.55;5.40;;;16.50;99.90;;;;;;5073078;28;20185;-65
2022/11/01 02:55:38;;;;;;;6.68;4.47;;;16.40;99.90;;;;;;5072767;28;20662;-66
2022/11/01 02:58:36;;;;;;;9.38;5.18;;;16.40;99.90;;;;;;5072708;28;20174;-65
2022/11/01 03:01:02;;;;;;;10.00;4.65;;;16.40;99.90;;;;;;5074049;28;20193;-65
2022/11/01 03:03:31;;;;;;;13.10;4.70;;;16.40;99.90;;;;;;5076685;28;20235;-65
2022/11/01 03:06:00;;;;;;;9.35;4.78;;;16.50;99.90;;;;;;5076073;28;20205;-65
2022/11/01 03:08:45;;;;;;;11.13;5.13;;;16.50;99.90;;;;;;5076252;28;20174;-65
2022/11/01 03:11:19;;;;;;;12.80;4.75;;;16.50;99.90;;;;;;5076483;28;20520;-66
2022/11/01 03:13:59;;;;;;;8.13;4.85;;;16.40;99.90;;;;;;5076307;28;20157;-65
2022/11/01 03:16:36;;;;;;;10.00;4.90;;;16.40;99.90;;;;;;5076192;28;20269;-65
2022/11/01 03:19:41;;;;;;;8.80;4.47;;;16.50;99.90;;;;;;5076498;28;20158;-65
2022/11/01 03:22:12;;;;;;;12.52;5.15;;;16.50;99.90;;;;;;5075958;28;20162;-65
2022/11/01 03:24:51;;;;;;;8.50;4.60;;;16.60;99.90;;;;;;5074675;28;20186;-66
2022/11/01 03:27:31;;;;;;;9.95;4.20;;;16.60;99.90;;;;;;5075914;28;20204;-65
2022/11/01 03:30:15;;;;;;;9.63;4.80;;;16.70;99.90;;;;;;5075960;28;20146;-65
2022/11/01 03:32:52;;;;;;;8.15;4.28;;;16.70;99.90;;;;;;5074581;28;20158;-65
2022/11/01 03:35:33;;;;;;;9.93;4.72;;;16.70;99.90;;;;;;5076108;28;20266;-65
2022/11/01 03:38:04;;;;;;;8.07;4.60;;;16.70;99.90;;;;;;5075920;28;20526;-65
2022/11/01 03:40:32;;;;;;;7.60;4.75;;;16.70;99.90;;;;;;5076420;28;20614;-65
2022/11/01 03:43:02;;;;;;;9.15;4.57;;;16.70;99.90;;;;;;5075638;28;20217;-65
2022/11/01 03:45:30;;;;;;;11.43;5.07;;;16.70;99.90;;;;;;5075593;28;20280;-65
2022/11/01 03:47:58;;;;;;;10.35;4.70;;;16.70;99.90;;;;;;5075674;28;20240;-65
2022/11/01 03:50:26;;;;;;;7.85;4.20;;;16.80;99.90;;;;;;5075685;28;20176;-65
2022/11/01 03:52:52;;;;;;;7.28;4.45;;;16.70;99.90;;;;;;5075527;28;20174;-65
2022/11/01 03:55:19;;;;;;;11.82;4.68;;;16.80;99.90;;;;;;5075394;28;20197;-65
2022/11/01 03:57:54;;;;;;;10.32;5.20;;;16.80;99.90;;;;;;5075471;28;20181;-66
2022/11/01 04:00:24;;;;;;;8.75;4.60;;;16.70;99.90;;;;;;5075701;28;20205;-65
2022/11/01 04:02:52;;;;;;;10.63;4.47;;;16.70;99.90;;;;;;5075346;28;20684;-65
2022/11/01 04:05:19;;;;;;;9.02;4.60;;;16.70;99.90;;;;;;5075312;28;20206;-66
2022/11/01 04:07:45;;;;;;;10.68;4.30;;;16.70;99.90;;;;;;5075186;28;20197;-65
2022/11/01 04:10:11;;;;;;;9.20;5.22;;;16.70;99.90;;;;;;5075416;28;20193;-65
2022/11/01 04:12:37;;;;;;;10.45;5.13;;;16.70;99.90;;;;;;5074690;28;20243;-66
2022/11/01 04:20:33;;;;;;;8.73;4.80;;;16.70;99.90;;;;;;5075128;28;20177;-65
2022/11/01 04:23:04;;;;;;;11.02;5.05;;;16.70;99.90;;;;;;5073695;28;20606;-65
2022/11/01 04:25:31;;;;;;;8.85;4.45;;;16.70;99.90;;;;;;5074976;28;20193;-65
2022/11/01 04:27:57;;;;;;;8.48;5.20;;;16.70;99.90;;;;;;5074728;28;20255;-65
2022/11/01 04:30:27;;;;;;;8.80;4.57;;;16.70;99.90;;;;;;5075345;28;20173;-65
2022/11/01 04:32:53;;;;;;;8.05;4.50;;;16.60;99.90;;;;;;5075396;28;20214;-65
2022/11/01 04:35:20;;;;;;;8.85;4.85;;;16.60;99.90;;;;;;5075086;28;20205;-66
2022/11/01 04:37:46;;;;;;;12.75;4.68;;;16.50;99.90;;;;;;5074778;28;20243;-65
2022/11/01 04:40:13;;;;;;;7.30;4.68;;;16.50;99.90;;;;;;5074815;28;20188;-65
2022/11/01 04:42:39;;;;;;;10.43;5.07;;;16.50;99.90;;;;;;5074685;28;20174;-66
2022/11/01 04:45:07;;;;;;;6.65;4.47;;;16.50;99.90;;;;;;5074359;28;20300;-66
2022/11/01 04:47:33;;;;;;;8.68;4.30;;;16.50;99.90;;;;;;5074977;28;20600;-65
2022/11/01 04:49:59;;;;;;;10.60;4.78;;;16.50;99.90;;;;;;5074262;28;20185;-66
2022/11/01 04:52:25;;;;;;;7.03;4.50;;;16.50;99.90;;;;;;5074871;28;20279;-65
2022/11/01 04:54:51;;;;;;;7.90;4.20;;;16.60;99.90;;;;;;5074545;28;20678;-66
2022/11/01 04:57:23;;;;;;;8.82;4.25;;;16.50;99.90;;;;;;5074513;28;20185;-65
2022/11/01 04:59:53;;;;;;;9.45;4.28;;;16.50;99.90;;;;;;5074506;28;20154;-65
2022/11/01 05:02:20;;;;;;;11.15;4.93;;;16.50;99.90;;;;;;5074167;28;20174;-65
2022/11/01 05:04:45;;;;;;;9.52;4.57;;;16.50;99.90;;;;;;5074320;28;20193;-66
2022/11/01 05:07:12;;;;;;;11.65;4.90;;;16.50;99.90;;;;;;5073935;28;20189;-65
2022/11/01 05:09:38;;;;;;;9.65;5.00;;;16.50;99.90;;;;;;5073886;28;20170;-65
2022/11/01 05:12:04;;;;;;;10.52;4.60;;;16.50;99.90;;;;;;5073907;28;20522;-65
2022/11/01 05:14:29;;;;;;;7.45;4.40;;;16.40;99.90;;;;;;5074490;28;20177;-65
2022/11/01 05:16:56;;;;;;;8.68;4.47;;;16.40;99.90;;;;;;5073772;28;20670;-65
2022/11/01 05:19:22;;;;;;;9.25;4.93;;;16.40;99.90;;;;;;5073863;28;20248;-65
2022/11/01 05:21:49;;;;;;;8.73;5.00;;;16.40;99.90;;;;;;5073920;28;20304;-65
2022/11/01 05:24:15;;;;;;;11.32;4.65;;;16.30;99.90;;;;;;5072892;28;20169;-65
2022/11/01 05:26:41;;;;;;;9.15;4.80;;;16.30;99.90;;;;;;5073588;28;20201;-65
2022/11/01 05:29:07;;;;;;;7.43;4.50;;;16.30;99.90;;;;;;5072484;28;20177;-65
2022/11/01 05:31:33;;;;;;;11.02;5.07;;;16.30;99.90;;;;;;5073687;28;20185;-65
2022/11/01 05:33:59;;;;;;;11.60;5.20;;;16.30;99.90;;;;;;5074299;28;20174;-65
2022/11/01 05:36:25;;;;;;;9.98;4.63;;;16.30;99.90;;;;;;5073387;28;20276;-65
2022/11/01 05:38:54;;;;;;;10.77;5.60;;;16.30;99.90;;;;;;5074073;28;20247;-65
2022/11/01 05:41:20;;;;;;;9.82;4.80;;;16.30;99.90;;;;;;5074386;28;20181;-65
2022/11/01 05:43:45;;;;;;;6.78;4.07;;;16.30;99.90;;;;;;5073938;28;20182;-65
2022/11/01 05:46:11;;;;;;;8.50;4.57;;;16.30;99.90;;;;;;5073573;28;20237;-65
2022/11/01 05:48:37;;;;;;;7.65;5.10;;;16.40;99.90;;;;;;5074005;28;20355;-65
2022/11/01 05:51:03;;;;;;;6.40;4.93;;;16.30;99.90;;;;;;5073354;28;20227;-65
2022/11/01 05:53:28;;;;;;;10.27;4.75;;;16.30;99.90;;;;;;5073359;28;20165;-65
2022/11/01 05:55:58;;;;;;;8.07;4.63;;;16.30;99.90;;;;;;5073404;28;20242;-65
2022/11/01 05:58:24;;;;;;;8.70;4.60;;;16.30;99.90;;;;;;5073404;28;20235;-65
2022/11/01 06:00:56;;;;;;;7.55;4.85;;;16.30;99.90;;;;;;5073237;28;20224;-65
2022/11/01 06:03:21;;;;;;;7.68;4.43;;;16.30;99.90;;;;;;5072062;28;20174;-65
2022/11/01 06:05:47;;;;;;;8.90;4.70;;;16.20;99.90;;;;;;5073059;28;20368;-65
2022/11/01 06:08:13;;;;;;;8.30;5.10;;;16.20;99.90;;;;;;5073382;28;20193;-65
2022/11/01 06:10:39;;;;;;;11.65;6.45;;;16.20;99.90;;;;;;5073074;28;20215;-64
2022/11/01 06:13:04;;;;;;;8.90;4.90;;;16.20;99.90;;;;;;5073094;28;20677;-65
2022/11/01 06:15:30;;;;;;;8.13;4.78;;;16.10;99.90;;;;;;5073514;28;20185;-65
2022/11/01 06:17:59;;;;;;;8.52;4.85;;;16.10;99.90;;;;;;5073006;28;20188;-64
2022/11/01 06:20:30;;;;;;;12.63;4.90;;;16.20;99.90;;;;;;5071635;28;20209;-65
2022/11/01 06:22:57;;;;;;;9.70;4.95;;;16.20;99.90;;;;;;5073007;28;20177;-64
2022/11/01 06:25:23;;;;;;;7.88;4.68;;;16.20;99.90;;;;;;5072757;28;20197;-65
2022/11/01 06:27:49;;;;;;;10.02;4.90;;;16.20;99.90;;;;;;5072851;28;20189;-64
2022/11/01 06:30:15;;;;;;;12.30;4.40;;;16.10;99.90;;;;;;5072904;28;20166;-64
2022/11/01 06:32:41;;;;;;;6.82;4.65;;;16.10;99.90;;;;;;5072879;28;20195;-64
2022/11/01 06:35:07;;;;;;;7.38;4.78;;;16.10;99.90;;;;;;5072442;28;20197;-65
2022/11/01 06:37:33;;;;;;;9.23;4.85;;;16.10;99.90;;;;;;5077319;28;20223;-64
2022/11/01 06:39:59;;;;;;;6.35;4.43;;;16.10;99.90;;;;;;5076813;28;20665;-64
2022/11/01 06:42:24;;;;;;;8.10;4.82;;;16.10;99.90;;;;;;5076712;28;20260;-64
2022/11/01 06:44:50;;;;;;;7.07;4.20;;;16.10;99.90;;;;;;5076516;28;20216;-65
2022/11/01 06:47:16;;;;;;;11.43;5.10;;;16.00;99.90;;;;;;5076518;28;20193;-65
2022/11/01 06:49:42;;;;;;;7.88;4.75;;;16.10;99.90;;;;;;5077141;28;20603;-64
2022/11/01 06:52:07;;;;;;;8.80;4.85;;;16.00;99.90;;;;;;5076400;28;20260;-64
2022/11/01 06:54:33;;;;;;;7.53;4.70;;;16.10;99.90;;;;;;5075237;28;20196;-64
2022/11/01 06:56:59;;;;;;;7.82;4.95;;;16.10;99.90;;;;;;5076682;28;20162;-64
2022/11/01 06:59:25;;;;;;;9.55;4.63;;;16.10;99.90;;;;;;5076410;28;20205;-64
2022/11/01 07:01:53;;;;;;;8.13;4.25;;;16.10;99.90;;;;;;5076305;28;20181;-64
2022/11/01 07:04:20;;;;;;;6.80;3.80;;;16.10;99.90;;;;;;5076261;28;20178;-64
2022/11/01 07:06:46;;;;;;;8.95;3.85;;;16.20;99.90;;;;;;5074786;28;20212;-64
2022/11/01 07:09:12;;;;;;;9.00;3.80;;;16.20;99.90;;;;;;5075009;28;20170;-64
2022/11/01 07:11:38;;;;;;;6.50;3.90;;;16.30;99.90;;;;;;5076027;28;20185;-65
2022/11/01 07:14:04;;;;;;;7.72;3.70;;;16.30;99.90;;;;;;5076309;28;20166;-64
2022/11/01 07:16:31;;;;;;;9.55;3.63;;;16.20;99.90;;;;;;5075983;28;20197;-65
2022/11/01 07:18:57;;;;;;;7.10;3.33;;;16.20;99.90;;;;;;5074609;28;20170;-64
2022/11/01 07:21:23;;;;;;;4.18;3.35;;;16.20;99.90;;;;;;5074440;28;20178;-64
2022/11/01 07:23:51;;;;;;;5.65;3.65;;;16.10;99.90;;;;;;5076132;28;20252;-64
2022/11/01 07:26:17;;;;;;;6.78;3.40;;;16.20;99.90;;;;;;5075685;28;20193;-64
2022/11/01 07:28:42;;;;;;;7.40;3.55;;;16.20;99.90;;;;;;5074552;28;20630;-65
2022/11/01 07:31:08;;;;;;;4.88;3.30;;;16.10;99.90;;;;;;5076006;28;20212;-64
2022/11/01 07:33:35;;;;;;;8.85;3.28;;;16.00;99.90;;;;;;5074597;28;20604;-64
2022/11/01 07:36:01;;;;;;;3.10;2.70;;;15.90;99.90;;;;;;5075780;28;20736;-64
2022/11/01 07:38:27;;;;;;;6.00;3.13;;;15.80;99.90;;;;;;5076452;28;20631;-64
2022/11/01 07:40:53;;;;;;;4.25;2.50;;;15.70;99.90;;;;;;5076491;28;20249;-64
2022/11/01 07:43:19;;;;;;;3.45;3.05;;;15.60;99.90;;;;;;5074784;28;20186;-64
2022/11/01 07:45:46;;;;;;;6.03;2.70;;;15.50;99.90;;;;;;5075657;28;20232;-65
2022/11/01 07:48:14;;;;;;;4.50;2.67;;;15.50;99.90;;;;;;5074698;28;20292;-64
2022/11/01 07:50:41;;;;;;;6.20;2.67;;;15.40;99.90;;;;;;5075574;28;20187;-64
2022/11/01 07:53:10;;;;;;;4.82;2.75;;;15.30;99.90;;;;;;5075624;28;20170;-64
2022/11/01 07:55:36;;;;;;;3.45;2.40;;;15.20;99.90;;;;;;5075484;28;20308;-64
2022/11/01 07:58:03;;;;;;;5.53;2.60;;;15.10;99.90;;;;;;5075503;28;20679;-64
2022/11/01 08:00:30;;;;;;;4.63;2.90;;;15.00;99.90;;;;;;5075962;28;20192;-70
2022/11/01 08:03:05;;;;;;;4.03;2.60;;;15.00;99.90;;;;;;5074234;28;20177;-65
2022/11/01 08:05:31;;;;;;;7.50;2.88;;;14.90;99.90;;;;;;5075746;28;20212;-68
2022/11/01 08:07:57;;;;;;;6.25;2.50;;;14.90;99.90;;;;;;5074316;28;20239;-68
2022/11/01 08:10:23;;;;;;;4.05;2.30;;;14.80;99.90;;;;;;5076304;28;20177;-68
2022/11/01 08:12:48;;;;;;;3.03;2.40;;;14.80;99.90;;;;;;5075517;28;20181;-65
2022/11/01 08:15:14;;;;;;;6.72;2.90;;;14.80;99.90;;;;;;5073793;28;20193;-65
2022/11/01 08:17:40;;;;;;;4.65;2.60;;;14.80;99.90;;;;;;5075411;28;20173;-64
2022/11/01 08:20:06;;;;;;;4.03;2.85;;;14.80;99.90;;;;;;5075021;28;20205;-65
2022/11/01 08:22:32;;;;;;;5.05;2.90;;;14.70;99.90;;;;;;5073845;28;20555;-65
2022/11/01 08:24:58;;;;;;;4.85;2.70;;;14.80;99.90;;;;;;5075335;28;20193;-65
2022/11/01 08:27:24;;;;;;;5.03;2.40;;;14.70;99.90;;;;;;5075120;28;20259;-65
2022/11/01 08:29:50;;;;;;;4.32;2.40;;;14.80;99.90;;;;;;5075694;28;20166;-68
2022/11/01 08:32:22;;;;;;;3.97;2.58;;;14.90;99.90;;;;;;5076669;28;20597;-69
2022/11/01 08:34:48;;;;;;;7.28;2.83;;;14.90;99.90;;;;;;5075824;28;20161;-65
2022/11/01 08:37:14;;;;;;;3.10;2.30;;;15.00;99.90;;;;;;5074519;28;20169;-64
2022/11/01 08:39:40;;;;;;;4.72;2.53;;;15.10;99.90;;;;;;5074596;28;20219;-65
2022/11/01 08:42:05;;;;;;;3.45;2.40;;;15.20;99.90;;;;;;5082874;28;20180;-67
2022/11/01 08:44:33;;;;;;;2.40;2.20;;;15.20;99.90;;;;;;5095186;28;20734;-69
2022/11/01 08:47:00;;;;;;;5.45;2.40;;;15.30;99.90;;;;;;5094806;28;20285;-68
2022/11/01 08:49:26;;;;;;;5.30;2.35;;;15.30;99.90;;;;;;5095169;28;20535;-69
2022/11/01 08:51:52;;;;;;;4.13;2.53;;;15.40;99.90;;;;;;5094909;28;20177;-69
2022/11/01 08:54:18;;;;;;;2.88;2.53;;;15.50;99.90;;;;;;5093582;28;20181;-69
2022/11/01 08:56:44;;;;;;;6.00;2.92;;;15.60;99.90;;;;;;5094843;28;20665;-69
2022/11/01 08:59:10;;;;;;;3.75;2.55;;;15.70;99.90;;;;;;5094572;28;20188;-69
2022/11/01 09:01:37;;;;;;;5.50;2.88;;;15.80;99.90;;;;;;5094706;28;20642;-69
2022/11/01 09:04:03;;;;;;;6.20;2.50;;;15.80;99.90;;;;;;5094730;28;20178;-69
2022/11/01 09:06:29;;;;;;;6.75;2.72;;;15.90;99.90;;;;;;5094497;28;20200;-69
2022/11/01 09:08:56;;;;;;;10.38;2.50;;;15.80;99.90;;;;;;5094755;28;20179;-69
2022/11/01 09:11:23;;;;;;;5.43;2.63;;;15.90;99.90;;;;;;5092095;28;20165;-69
2022/11/01 09:13:50;;;;;;;3.70;2.40;;;16.00;99.90;;;;;;5074519;28;20181;-69
2022/11/01 09:16:16;;;;;;;4.10;2.10;;;16.00;99.90;;;;;;5074181;28;20218;-69
2022/11/01 09:18:42;;;;;;;5.65;2.70;;;16.00;99.90;;;;;;5073155;28;20208;-69
2022/11/01 09:21:08;;;;;;;5.05;2.50;;;15.80;99.90;;;;;;5072866;28;20220;-69
2022/11/01 09:23:34;;;;;;;7.18;2.58;;;15.80;99.90;;;;;;5074253;28;20181;-69
2022/11/01 09:26:02;;;;;;;8.15;2.55;;;15.70;99.90;;;;;;5073867;28;20201;-69
2022/11/01 09:28:29;;;;;;;7.63;2.50;;;15.70;99.90;;;;;;5072882;28;20209;-69
2022/11/01 09:30:56;;;;;;;4.40;2.45;;;15.70;99.90;;;;;;5074766;28;20153;-69
2022/11/01 09:33:22;;;;;;;7.93;2.88;;;15.70;99.90;;;;;;5074291;28;20512;-69
2022/11/01 09:35:51;;;;;;;11.38;2.92;;;15.80;99.90;;;;;;5074080;28;20193;-69
2022/11/01 09:38:17;;;;;;;8.23;2.60;;;15.60;99.90;;;;;;5073813;28;20178;-69
2022/11/01 09:40:47;;;;;;;11.90;3.00;;;15.60;99.90;;;;;;5072529;28;20185;-69
2022/11/01 09:43:19;;;;;;;8.75;3.10;;;15.50;99.90;;;;;;5073683;28;20185;-69
2022/11/01 09:45:48;;;;;;;10.18;3.17;;;15.50;99.90;;;;;;5073595;28;20213;-69
2022/11/01 09:48:16;;;;;;;8.25;3.00;;;15.40;99.90;;;;;;5073846;28;20712;-68
2022/11/01 09:50:44;;;;;;;9.20;3.00;;;15.30;99.90;;;;;;5072195;28;20235;-69
2022/11/01 09:53:19;;;;;;;10.85;3.55;;;15.40;99.90;;;;;;5073822;28;20198;-68
2022/11/01 09:56:04;;;;;;;10.13;3.38;;;15.50;99.90;;;;;;5073811;28;20645;-69
2022/11/01 09:58:41;;;;;;;11.20;3.25;;;15.60;99.90;;;;;;5073800;28;20223;-68
2022/11/01 10:01:27;;;;;;;10.80;3.28;;;15.60;99.90;;;;;;5072353;28;20177;-68
2022/11/01 10:04:05;;;;;;;9.55;3.13;;;15.70;99.90;;;;;;5072109;28;20189;-68
2022/11/01 10:06:37;;;;;;;12.77;3.70;;;15.70;99.90;;;;;;5073174;28;20225;-68
2022/11/01 10:09:18;;;;;;;13.70;3.42;;;15.70;99.90;;;;;;5073230;28;20497;-68
2022/11/01 10:11:59;;;;;;;6.95;3.17;;;15.80;99.90;;;;;;5078093;28;20555;-68
2022/11/01 10:14:50;;;;;;;8.57;3.20;;;16.00;99.90;;;;;;5092331;28;20176;-68
2022/11/01 10:17:21;;;;;;;11.23;3.60;;;16.10;99.90;;;;;;5093501;28;20188;-68
2022/11/01 10:19:49;;;;;;;9.43;3.38;;;16.10;99.90;;;;;;5093536;28;20158;-68
2022/11/01 10:22:17;;;;;;;9.85;3.20;;;16.20;99.90;;;;;;5093312;28;20192;-68
2022/11/01 10:24:54;;;;;;;12.57;3.70;;;16.20;99.90;;;;;;5092295;28;20181;-68
2022/11/01 10:27:46;;;;;;;14.45;3.55;;;16.20;99.90;;;;;;5092571;28;20196;-68
2022/11/01 10:30:16;;;;;;;11.13;3.72;;;16.30;99.90;;;;;;5092786;28;20264;-68
2022/11/01 10:33:17;;;;;;;12.02;4.07;;;16.40;99.90;;;;;;5092330;28;20180;-68
2022/11/01 10:35:45;;;;;;;13.93;3.42;;;16.40;99.90;;;;;;5093337;28;20189;-68
2022/11/01 10:38:39;;;;;;;8.88;3.15;;;16.50;99.90;;;;;;5091932;28;20184;-68
2022/11/01 10:41:10;;;;;;;8.38;3.10;;;16.60;99.90;;;;;;5084578;28;20185;-68
2022/11/01 10:43:41;;;;;;;11.10;3.38;;;16.70;99.90;;;;;;5053096;28;20167;-68
2022/11/01 10:46:12;;;;;;;15.70;3.30;;;16.70;99.90;;;;;;5053034;28;20625;-68
2022/11/01 10:48:55;;;;;;;10.95;3.47;;;16.60;99.90;;;;;;5051690;28;20178;-68
2022/11/01 10:51:23;;;;;;;12.88;3.15;;;16.70;99.90;;;;;;5053126;28;20159;-68
2022/11/01 10:53:56;;;;;;;14.27;3.60;;;16.90;99.90;;;;;;5052897;28;20249;-68
2022/11/01 10:56:34;;;;;;;14.30;3.67;;;17.00;99.90;;;;;;5052850;28;20190;-69
2022/11/01 10:59:26;;;;;;;11.70;3.40;;;17.10;99.90;;;;;;5052945;28;20161;-68
2022/11/01 11:01:54;;;;;;;11.95;3.22;;;17.00;99.90;;;;;;5052511;28;20297;-68
2022/11/01 11:04:22;;;;;;;13.00;3.15;;;16.80;99.90;;;;;;5051700;28;20259;-68
2022/11/01 11:06:48;;;;;;;8.63;3.55;;;16.90;99.90;;;;;;5052628;28;20674;-68
2022/11/01 11:09:39;;;;;;;10.95;3.05;;;16.90;99.90;;;;;;5051420;28;20182;-68
2022/11/01 11:12:26;;;;;;;13.80;3.30;;;17.10;99.90;;;;;;5060530;28;20181;-68
2022/11/01 11:14:57;;;;;;;12.95;3.17;;;17.20;99.90;;;;;;5072738;28;20162;-68
2022/11/01 11:17:28;;;;;;;11.27;2.97;;;17.20;99.90;;;;;;5072793;28;20207;-68
2022/11/01 11:19:59;;;;;;;8.73;3.05;;;17.30;99.90;;;;;;5072638;28;20169;-68
2022/11/01 11:22:25;;;;;;;9.23;2.85;;;17.20;99.90;;;;;;5072658;28;20174;-68
2022/11/01 11:24:57;;;;;;;11.15;3.40;;;17.20;99.90;;;;;;5076194;28;20181;-68
2022/11/01 11:27:27;;;;;;;12.20;3.75;;;17.40;99.90;;;;;;5076542;28;20661;-69
2022/11/01 11:30:06;;;;;;;11.38;3.45;;;17.40;99.90;;;;;;5076611;28;20505;-69
2022/11/01 11:32:37;;;;;;;13.70;3.50;;;17.40;99.90;;;;;;5076693;28;20158;-69
2022/11/01 11:35:18;;;;;;;9.35;3.20;;;17.70;99.90;;;;;;5076870;28;20717;-69
2022/11/01 11:37:55;;;;;;;11.02;3.30;;;17.80;99.90;;;;;;5078302;28;20225;-69
2022/11/01 11:40:26;;;;;;;6.40;3.47;;;18.00;99.90;;;;;;5075453;28;20556;-69
2022/11/01 11:43:13;;;;;;;12.35;3.25;;;18.20;99.90;;;;;;5076411;28;20177;-69
2022/11/01 11:45:39;;;;;;;9.73;3.20;;;18.10;99.90;;;;;;5074954;28;20210;-69
2022/11/01 11:48:19;;;;;;;11.88;3.33;;;17.90;99.90;;;;;;5076234;28;20563;-68
2022/11/01 11:50:45;;;;;;;9.60;2.97;;;17.60;99.90;;;;;;5076224;28;20164;-69
2022/11/01 11:53:19;;;;;;;9.68;3.05;;;17.70;99.90;;;;;;5075603;28;20174;-69
2022/11/01 11:55:52;;;;;;;9.18;2.83;;;17.70;99.90;;;;;;5075930;28;20196;-69
2022/11/01 11:58:49;;;;;;;10.93;3.40;;;17.80;99.90;;;;;;5076047;28;20170;-69
2022/11/01 12:01:24;;;;;;;8.57;3.25;;;17.90;99.90;;;;;;5075440;28;20193;-68
2022/11/01 12:04:17;;;;;;;7.03;2.65;;;17.80;99.90;;;;;;5075588;28;20522;-69
2022/11/01 12:06:44;;;;;;;10.30;2.90;;;17.70;99.90;;;;;;5074971;28;20210;-69
2022/11/01 12:09:41;;;;;;;7.85;3.08;;;18.00;99.90;;;;;;5075678;28;20193;-69
2022/11/01 12:12:18;;;;;;;11.43;3.10;;;17.80;99.90;;;;;;5074889;28;20194;-69
2022/11/01 12:14:44;;;;;;;11.35;3.35;;;17.80;99.90;;;;;;5075665;28;20169;-68
2022/11/01 12:17:27;;;;;;;12.50;3.47;;;17.80;99.90;;;;;;5075410;28;20535;-69
2022/11/01 12:20:09;;;;;;;14.27;3.55;;;17.70;99.90;;;;;;5075282;28;20189;-69
2022/11/01 12:22:38;;;;;;;11.20;3.08;;;17.80;99.90;;;;;;5075177;28;20231;-69
2022/11/01 12:25:14;;;;;;;9.27;2.90;;;17.80;99.90;;;;;;5073847;28;20198;-69
2022/11/01 12:28:08;;;;;;;9.95;2.80;;;17.60;99.90;;;;;;5075999;28;20588;-69
2022/11/01 12:30:36;;;;;;;7.03;2.47;;;17.70;99.90;;;;;;5075594;28;20181;-69
2022/11/01 12:33:26;;;;;;;9.70;2.63;;;17.90;99.90;;;;;;5073532;28;20174;-69
2022/11/01 12:35:55;;;;;;;9.18;2.97;;;17.90;99.90;;;;;;5074501;28;20270;-69
2022/11/01 12:38:39;;;;;;;9.27;2.60;;;17.90;99.90;;;;;;5075028;28;20212;-69
2022/11/01 12:41:23;;;;;;;6.22;2.60;;;18.00;99.90;;;;;;5075365;28;20560;-69
2022/11/01 12:44:03;;;;;;;5.07;2.58;;;17.80;99.90;;;;;;5075145;28;20170;-69
2022/11/01 12:46:29;;;;;;;7.43;2.85;;;17.70;99.90;;;;;;5075439;28;20276;-69
2022/11/01 12:49:09;;;;;;;9.32;2.35;;;17.80;99.90;;;;;;5073473;28;20206;-69
2022/11/01 12:51:40;;;;;;;11.52;2.63;;;17.80;99.90;;;;;;5074765;28;20157;-69
2022/11/01 12:54:26;;;;;;;8.52;2.70;;;17.80;99.90;;;;;;5075227;28;20162;-69
2022/11/01 12:56:54;;;;;;;5.32;2.55;;;18.00;99.90;;;;;;5073284;28;20692;-69
2022/11/01 12:59:27;;;;;;;4.63;2.35;;;17.90;99.90;;;;;;5074612;28;20178;-69
2022/11/01 13:02:07;;;;;;;8.85;2.58;;;17.90;99.90;;;;;;5074426;28;20173;-69
2022/11/01 13:04:49;;;;;;;8.27;2.80;;;17.90;99.90;;;;;;5074464;28;20158;-69
2022/11/01 13:07:40;;;;;;;8.48;2.50;;;17.90;99.90;;;;;;5074249;28;20250;-69